createdAt,value
2022-11-24T00:01:07.689Z,5.86
2022-11-24T00:04:11.781Z,5.90
2022-11-24T00:07:14.992Z,5.84
2022-11-24T00:10:21.478Z,5.84
2022-11-24T00:13:25.514Z,5.78
2022-11-24T00:16:36.583Z,5.90
2022-11-24T00:19:39.185Z,5.82
2022-11-24T00:22:41.648Z,5.78
2022-11-24T00:25:44.195Z,5.74
2022-11-24T00:28:48.360Z,5.75
2022-11-24T00:31:50.791Z,5.74
2022-11-24T00:34:54.007Z,5.85
2022-11-24T00:37:56.512Z,5.73
2022-11-24T00:40:58.952Z,5.79
2022-11-24T00:44:01.641Z,5.65
2022-11-24T00:47:04.177Z,5.80
2022-11-24T00:50:07.350Z,5.71
2022-11-24T00:53:10.546Z,5.61
2022-11-24T00:56:13.610Z,5.74
2022-11-24T00:59:17.041Z,5.79
2022-11-24T01:02:19.681Z,5.81
2022-11-24T01:05:23.074Z,5.79
2022-11-24T01:08:25.661Z,5.76
2022-11-24T01:11:54.573Z,5.69
2022-11-24T01:14:58.878Z,5.59
2022-11-24T01:18:01.468Z,5.69
2022-11-24T01:21:09.864Z,5.67
2022-11-24T01:24:13.601Z,5.63
2022-11-24T01:27:16.583Z,5.65
2022-11-24T01:30:22.640Z,5.69
2022-11-24T01:33:26.239Z,5.66
2022-11-24T01:36:29.603Z,5.70
2022-11-24T01:39:32.382Z,5.58
2022-11-24T01:42:50.695Z,5.66
2022-11-24T01:45:54.823Z,5.67
2022-11-24T01:49:11.932Z,5.61
2022-11-24T01:52:20.039Z,5.59
2022-11-24T01:55:28.811Z,5.65
2022-11-24T01:58:36.792Z,5.69
2022-11-24T02:01:40.440Z,5.63
2022-11-24T02:04:45.494Z,5.61
2022-11-24T02:07:48.793Z,5.68
2022-11-24T02:10:54.884Z,5.49
2022-11-24T02:13:58.449Z,5.66
2022-11-24T02:17:01.736Z,5.56
2022-11-24T02:20:07.957Z,5.62
2022-11-24T02:23:28.527Z,5.57
2022-11-24T02:26:48.465Z,5.53
2022-11-24T02:29:51.784Z,5.60
2022-11-24T02:32:55.339Z,5.57
2022-11-24T02:35:58.840Z,5.57
2022-11-24T02:39:03.621Z,5.38
2022-11-24T02:42:12.944Z,5.46
2022-11-24T02:45:16.682Z,5.60
2022-11-24T02:48:19.685Z,5.52
2022-11-24T02:51:23.223Z,5.38
2022-11-24T02:54:25.857Z,5.36
2022-11-24T02:57:28.378Z,5.40
2022-11-24T03:00:30.912Z,5.32
2022-11-24T03:03:33.629Z,5.10
2022-11-24T03:06:36.760Z,5.11
2022-11-24T03:09:39.403Z,5.22
2022-11-24T03:12:43.157Z,5.32
2022-11-24T03:15:45.538Z,5.22
2022-11-24T03:18:51.176Z,5.13
2022-11-24T03:21:53.655Z,5.25
2022-11-24T03:24:56.748Z,5.22
2022-11-24T03:27:59.732Z,5.13
2022-11-24T03:31:02.765Z,5.06
2022-11-24T03:34:06.329Z,5.03
2022-11-24T03:37:09.807Z,5.17
2022-11-24T03:40:13.402Z,5.09
2022-11-24T03:43:15.951Z,5.14
2022-11-24T03:46:19.356Z,5.01
2022-11-24T03:49:22.073Z,5.13
2022-11-24T03:52:26.672Z,4.95
2022-11-24T03:55:30.762Z,5.04
2022-11-24T03:58:33.788Z,5.02
2022-11-24T04:01:36.270Z,5.01
2022-11-24T04:04:39.344Z,4.87
2022-11-24T04:07:42.066Z,4.89
2022-11-24T04:10:44.822Z,4.88
2022-11-24T04:13:48.303Z,4.77
2022-11-24T04:16:51.297Z,4.77
2022-11-24T04:19:54.350Z,4.91
2022-11-24T04:22:57.790Z,4.87
2022-11-24T04:26:00.236Z,4.86
2022-11-24T04:29:03.383Z,4.83
2022-11-24T04:32:06.448Z,4.55
2022-11-24T04:35:10.485Z,4.75
2022-11-24T04:38:13.864Z,4.59
2022-11-24T04:41:37.317Z,4.67
2022-11-24T04:44:39.846Z,4.62
2022-11-24T04:47:42.286Z,4.41
2022-11-24T04:50:44.822Z,4.43
2022-11-24T04:53:49.169Z,4.47
2022-11-24T04:56:52.662Z,4.46
2022-11-24T04:59:55.428Z,4.39
2022-11-24T05:02:58.928Z,4.39
2022-11-24T05:06:02.912Z,4.29
2022-11-24T05:09:08.509Z,4.39
2022-11-24T05:12:11.888Z,4.35
2022-11-24T05:15:14.350Z,4.39
2022-11-24T05:18:16.919Z,4.44
2022-11-24T05:21:19.527Z,4.50
2022-11-24T05:24:22.877Z,4.46
2022-11-24T05:27:26.353Z,4.53
2022-11-24T05:30:30.995Z,4.54
2022-11-24T05:33:35.023Z,4.53
2022-11-24T05:36:57.700Z,4.50
2022-11-24T05:40:00.738Z,4.44
2022-11-24T05:43:03.691Z,4.57
2022-11-24T05:46:06.264Z,4.63
2022-11-24T05:49:08.858Z,4.64
2022-11-24T05:52:11.375Z,4.69
2022-11-24T05:55:15.568Z,4.60
2022-11-24T05:58:18.289Z,4.70
2022-11-24T06:01:20.903Z,4.73
2022-11-24T06:04:23.333Z,4.79
2022-11-24T06:07:25.814Z,4.78
2022-11-24T06:10:28.594Z,4.81
2022-11-24T06:13:31.137Z,4.83
2022-11-24T06:16:34.446Z,4.85
2022-11-24T06:19:41.852Z,4.86
2022-11-24T06:22:45.925Z,4.89
2022-11-24T06:25:51.607Z,4.82
2022-11-24T06:28:55.008Z,4.89
2022-11-24T06:31:57.605Z,4.96
2022-11-24T06:35:01.053Z,4.97
2022-11-24T06:38:05.220Z,4.97
2022-11-24T06:41:13.149Z,5.08
2022-11-24T06:44:15.667Z,5.04
2022-11-24T06:47:24.579Z,5.09
2022-11-24T06:50:44.348Z,5.06
2022-11-24T06:57:26.505Z,5.15
2022-11-24T07:00:35.026Z,5.14
2022-11-24T07:03:42.230Z,5.19
2022-11-24T07:06:45.224Z,5.09
2022-11-24T07:09:48.673Z,5.15
2022-11-24T07:12:52.187Z,5.10
2022-11-24T07:15:55.582Z,5.07
2022-11-24T07:18:59.811Z,4.98
2022-11-24T07:22:03.641Z,5.08
2022-11-24T07:25:09.855Z,4.95
2022-11-24T07:28:12.647Z,5.09
2022-11-24T07:32:30.123Z,5.16
2022-11-24T07:41:47.336Z,5.21
2022-11-24T07:44:57.973Z,5.42
2022-11-24T07:48:17.226Z,5.45
2022-11-24T07:58:10.716Z,5.52
2022-11-24T08:01:25.678Z,5.47
2022-11-24T08:04:42.467Z,5.46
2022-11-24T08:07:45.760Z,5.46
2022-11-24T08:10:48.535Z,5.47
2022-11-24T08:13:51.539Z,5.39
2022-11-24T08:16:54.938Z,5.53
2022-11-24T08:19:58.204Z,5.50
2022-11-24T08:23:11.149Z,5.57
2022-11-24T08:26:23.499Z,5.52
2022-11-24T08:29:29.697Z,5.55
2022-11-24T08:32:33.550Z,5.63
2022-11-24T08:36:11.153Z,5.61
2022-11-24T08:39:14.204Z,5.72
2022-11-24T08:42:17.834Z,5.61
2022-11-24T08:45:26.036Z,5.81
2022-11-24T08:53:13.994Z,5.94
2022-11-24T08:56:19.689Z,5.88
2022-11-24T09:00:46.252Z,5.98
2022-11-24T09:04:12.118Z,5.87
2022-11-24T09:07:27.552Z,5.91
2022-11-24T09:12:18.831Z,5.94
2022-11-24T09:15:44.374Z,5.90
2022-11-24T09:28:58.696Z,6.29
2022-11-24T09:43:56.956Z,6.73
2022-11-24T09:49:14.214Z,6.85
2022-11-24T09:52:39.338Z,6.61
2022-11-24T09:55:58.178Z,6.63
2022-11-24T09:59:34.524Z,6.69
2022-11-24T10:03:21.231Z,6.65
2022-11-24T10:06:35.267Z,6.36
2022-11-24T10:09:51.957Z,6.47
2022-11-24T10:13:26.563Z,6.48
2022-11-24T10:16:51.523Z,6.44
2022-11-24T10:20:20.359Z,6.36
2022-11-24T10:28:52.885Z,6.29
2022-11-24T10:32:00.921Z,6.28
2022-11-24T10:35:18.601Z,6.36
2022-11-24T10:44:20.632Z,6.38
2022-11-24T10:47:26.738Z,6.61
2022-11-24T10:50:36.367Z,6.74
2022-11-24T10:53:41.067Z,6.63
2022-11-24T10:56:46.196Z,6.74
2022-11-24T10:59:52.918Z,6.75
2022-11-24T11:03:23.898Z,6.83
2022-11-24T11:06:32.392Z,6.87
2022-11-24T11:09:36.082Z,6.94
2022-11-24T11:12:44.954Z,6.98
2022-11-24T11:15:49.345Z,7.01
2022-11-24T11:18:53.785Z,7.08
2022-11-24T11:22:03.716Z,7.13
2022-11-24T11:25:19.524Z,7.13
2022-11-24T11:28:28.093Z,7.19
2022-11-24T11:31:41.368Z,7.14
2022-11-24T11:34:46.768Z,7.21
2022-11-24T11:37:51.710Z,7.26
2022-11-24T11:40:55.060Z,7.45
2022-11-24T11:44:22.711Z,7.48
2022-11-24T11:47:30.074Z,7.36
2022-11-24T11:51:14.853Z,7.31
2022-11-24T11:54:45.517Z,7.39
2022-11-24T11:58:05.566Z,7.26
2022-11-24T12:01:26.952Z,7.38
2022-11-24T12:04:43.957Z,7.59
2022-11-24T12:08:10.768Z,7.65
2022-11-24T12:11:34.565Z,7.56
2022-11-24T12:14:53.222Z,7.60
2022-11-24T12:18:56.433Z,7.48
2022-11-24T12:21:57.815Z,7.32
2022-11-24T12:25:32.695Z,7.37
2022-11-24T12:28:44.613Z,7.27
2022-11-24T12:32:26.613Z,7.26
2022-11-24T12:35:39.345Z,7.39
2022-11-24T12:38:42.790Z,7.22
2022-11-24T12:41:46.199Z,7.27
2022-11-24T12:45:13.181Z,7.27
2022-11-24T12:48:29.416Z,7.32
2022-11-24T12:51:39.881Z,7.20
2022-11-24T12:54:42.765Z,7.23
2022-11-24T12:58:36.697Z,7.20
2022-11-24T13:02:00.906Z,7.22
2022-11-24T13:05:33.359Z,7.30
2022-11-24T13:08:39.264Z,7.29
2022-11-24T13:11:44.744Z,7.41
2022-11-24T13:14:49.156Z,7.47
2022-11-24T13:18:07.139Z,7.48
2022-11-24T13:21:48.152Z,7.59
2022-11-24T13:25:22.664Z,7.73
2022-11-24T13:29:09.249Z,7.47
2022-11-24T13:32:23.458Z,7.56
2022-11-24T13:35:27.545Z,7.59
2022-11-24T13:38:42.037Z,7.54
2022-11-24T13:41:47.947Z,7.56
2022-11-24T13:44:52.725Z,7.58
2022-11-24T13:47:55.469Z,7.65
2022-11-24T13:51:04.222Z,7.62
2022-11-24T13:54:16.281Z,7.62
2022-11-24T13:57:40.138Z,7.53
2022-11-24T14:01:11.590Z,7.46
2022-11-24T14:05:30.052Z,7.47
2022-11-24T14:08:38.425Z,7.44
2022-11-24T14:11:42.142Z,7.49
2022-11-24T14:14:47.874Z,7.47
2022-11-24T14:17:53.149Z,7.55
2022-11-24T14:20:56.905Z,7.45
2022-11-24T14:24:04.279Z,7.30
2022-11-24T14:27:14.596Z,7.37
2022-11-24T14:30:20.941Z,7.34
2022-11-24T14:33:25.815Z,7.35
2022-11-24T14:36:28.655Z,7.31
2022-11-24T14:39:41.382Z,7.21
2022-11-24T14:42:50.641Z,7.31
2022-11-24T14:46:00.847Z,7.22
2022-11-24T14:49:04.932Z,7.23
2022-11-24T14:52:18.346Z,7.21
2022-11-24T14:55:28.179Z,7.26
2022-11-24T14:58:37.675Z,7.17
2022-11-24T15:01:43.385Z,7.16
2022-11-24T15:05:06.963Z,7.20
2022-11-24T15:08:14.511Z,7.23
2022-11-24T15:11:18.533Z,7.05
2022-11-24T15:14:52.197Z,7.08
2022-11-24T15:18:02.834Z,7.07
2022-11-24T15:21:06.580Z,7.09
2022-11-24T15:24:19.312Z,7.05
2022-11-24T15:27:21.941Z,6.97
2022-11-24T15:30:25.260Z,7.02
2022-11-24T15:33:28.614Z,6.99
2022-11-24T15:36:32.059Z,6.90
2022-11-24T15:39:34.915Z,6.87
2022-11-24T15:42:38.311Z,6.87
2022-11-24T15:45:41.875Z,6.75
2022-11-24T15:48:45.374Z,6.70
2022-11-24T15:51:48.543Z,6.71
2022-11-24T15:54:56.235Z,6.70
2022-11-24T15:57:58.860Z,6.68
2022-11-24T16:01:02.432Z,6.60
2022-11-24T16:04:05.782Z,6.61
2022-11-24T16:07:12.406Z,6.58
2022-11-24T16:10:28.360Z,6.56
2022-11-24T16:13:31.115Z,6.58
2022-11-24T16:16:33.819Z,6.46
2022-11-24T16:19:41.607Z,6.50
2022-11-24T16:22:45.146Z,6.47
2022-11-24T16:25:47.770Z,6.47
2022-11-24T16:28:50.525Z,6.39
2022-11-24T16:31:55.079Z,6.39
2022-11-24T16:34:58.367Z,6.37
2022-11-24T16:38:01.102Z,6.29
2022-11-24T16:41:04.181Z,6.29
2022-11-24T16:44:06.937Z,6.26
2022-11-24T16:47:12.691Z,6.25
2022-11-24T16:50:18.190Z,6.25
2022-11-24T16:53:21.420Z,6.19
2022-11-24T16:56:24.320Z,6.19
2022-11-24T16:59:27.052Z,6.14
2022-11-24T17:02:29.970Z,6.09
2022-11-24T17:05:32.639Z,6.12
2022-11-24T17:08:38.128Z,6.08
2022-11-24T17:11:41.545Z,6.03
2022-11-24T17:14:52.689Z,5.99
2022-11-24T17:18:24.012Z,5.95
2022-11-24T17:21:28.802Z,5.96
2022-11-24T17:24:32.226Z,5.88
2022-11-24T17:27:35.044Z,5.88
2022-11-24T17:30:38.259Z,5.87
2022-11-24T17:33:40.859Z,5.86
2022-11-24T17:36:46.105Z,5.85
2022-11-24T17:40:12.569Z,5.82
2022-11-24T17:43:13.364Z,5.73
2022-11-24T17:46:19.965Z,5.71
2022-11-24T17:49:23.632Z,5.66
2022-11-24T17:52:26.324Z,5.63
2022-11-24T17:55:29.475Z,5.63
2022-11-24T17:58:39.753Z,5.54
2022-11-24T18:01:45.367Z,5.52
2022-11-24T18:04:49.075Z,5.50
2022-11-24T18:07:51.634Z,5.47
2022-11-24T18:10:54.318Z,5.46
2022-11-24T18:14:01.138Z,5.45
2022-11-24T18:17:04.629Z,5.46
2022-11-24T18:20:07.928Z,5.43
2022-11-24T18:23:11.520Z,5.44
2022-11-24T18:26:16.220Z,5.48
2022-11-24T18:29:19.541Z,5.41
2022-11-24T18:32:22.157Z,5.41
2022-11-24T18:35:24.792Z,5.39
2022-11-24T18:38:28.569Z,5.32
2022-11-24T18:41:32.485Z,5.28
2022-11-24T18:44:36.390Z,5.24
2022-11-24T18:47:39.364Z,5.27
2022-11-24T18:50:44.573Z,5.30
2022-11-24T18:53:53.482Z,5.25
2022-11-24T18:57:01.747Z,5.21
2022-11-24T19:00:08.324Z,5.14
2022-11-24T19:03:11.041Z,5.16
2022-11-24T19:06:19.040Z,5.12
2022-11-24T19:09:23.004Z,5.05
2022-11-24T19:12:26.561Z,4.98
2022-11-24T19:15:33.993Z,4.91
2022-11-24T19:18:37.633Z,4.88
2022-11-24T19:21:43.331Z,4.85
2022-11-24T19:24:46.710Z,4.85
2022-11-24T19:27:49.412Z,4.79
2022-11-24T19:30:52.152Z,4.82
2022-11-24T19:33:58.049Z,4.70
2022-11-24T19:37:00.947Z,4.71
2022-11-24T19:40:05.188Z,4.68
2022-11-24T19:43:08.587Z,4.67
2022-11-24T19:46:14.770Z,4.58
2022-11-24T19:49:17.327Z,4.59
2022-11-24T19:52:20.129Z,4.58
2022-11-24T19:55:23.589Z,4.62
2022-11-24T19:58:26.544Z,4.59
2022-11-24T20:01:39.883Z,4.58
2022-11-24T20:04:43.771Z,4.59
2022-11-24T20:07:46.508Z,4.55
2022-11-24T20:10:50.238Z,4.56
2022-11-24T20:13:53.661Z,4.55
2022-11-24T20:16:57.218Z,4.55
2022-11-24T20:20:00.681Z,4.57
2022-11-24T20:23:03.520Z,4.63
2022-11-24T20:26:19.582Z,4.59
2022-11-24T20:29:23.173Z,4.59
2022-11-24T20:32:28.222Z,4.60
2022-11-24T20:35:30.878Z,4.60
2022-11-24T20:38:34.923Z,4.60
2022-11-24T20:41:40.081Z,4.64
2022-11-24T20:44:42.711Z,4.55
2022-11-24T20:47:45.381Z,4.64
2022-11-24T20:50:51.270Z,4.58
2022-11-24T20:53:59.563Z,4.66
2022-11-24T20:57:02.362Z,4.69
2022-11-24T21:00:06.576Z,4.64
2022-11-24T21:03:10.744Z,4.64
2022-11-24T21:06:14.726Z,4.60
2022-11-24T21:09:19.085Z,4.65
2022-11-24T21:12:22.182Z,4.63
2022-11-24T21:15:25.741Z,4.61
2022-11-24T21:18:28.310Z,4.56
2022-11-24T21:21:35.269Z,4.69
2022-11-24T21:24:38.723Z,4.71
2022-11-24T21:27:42.385Z,4.66
2022-11-24T21:30:45.688Z,4.62
2022-11-24T21:33:50.793Z,4.62
2022-11-24T21:36:53.408Z,4.56
2022-11-24T21:39:55.953Z,4.47
2022-11-24T21:42:59.701Z,4.44
2022-11-24T21:46:06.262Z,4.38
2022-11-24T21:49:09.131Z,4.33
2022-11-24T21:52:12.812Z,4.30
2022-11-24T21:55:15.530Z,4.31
2022-11-24T21:58:18.768Z,4.34
2022-11-24T22:01:28.240Z,4.33
2022-11-24T22:04:32.455Z,4.40
2022-11-24T22:07:35.889Z,4.35
2022-11-24T22:10:38.596Z,4.34
2022-11-24T22:13:43.586Z,4.28
2022-11-24T22:16:46.973Z,4.25
2022-11-24T22:19:50.286Z,4.24
2022-11-24T22:22:52.948Z,4.18
2022-11-24T22:25:55.654Z,4.22
2022-11-24T22:28:58.448Z,4.31
2022-11-24T22:32:01.856Z,4.35
2022-11-24T22:35:05.973Z,4.31
2022-11-24T22:38:09.341Z,4.29
2022-11-24T22:41:17.436Z,4.26
2022-11-24T22:44:19.985Z,4.25
2022-11-24T22:47:22.523Z,4.30
2022-11-24T22:50:25.152Z,4.30
2022-11-24T22:53:28.515Z,4.20
2022-11-24T22:56:33.020Z,4.26
2022-11-24T22:59:36.009Z,4.33
2022-11-24T23:02:38.632Z,4.39
2022-11-24T23:05:41.515Z,4.37
2022-11-24T23:08:44.772Z,4.37
2022-11-24T23:11:49.120Z,4.35
2022-11-24T23:14:51.714Z,4.30
2022-11-24T23:17:54.832Z,4.28
2022-11-24T23:20:57.645Z,4.32
2022-11-24T23:24:02.447Z,4.26
2022-11-24T23:27:05.511Z,4.20
2022-11-24T23:30:08.824Z,4.21
2022-11-24T23:33:11.446Z,4.12
2022-11-24T23:36:19.839Z,4.12
2022-11-24T23:39:24.380Z,4.15
2022-11-24T23:42:27.898Z,4.13
2022-11-24T23:45:30.586Z,4.24
2022-11-24T23:48:36.684Z,4.27
2022-11-24T23:51:42.044Z,4.30
2022-11-24T23:54:44.723Z,4.32
2022-11-24T23:57:47.295Z,4.22
